Time,TemperatureF,DewpointF,PressureIn,WindDirection,WindDirectionDegrees,WindSpeedMPH,WindSpeedGustMPH,Humidity,HourlyPrecipIn,Conditions,Clouds,dailyrainin,SoftwareType,DateUTC
2013-04-25 00:00:00,54.0,48.0,30.28,North,350,15.0,-999.0,81,-99.99,,,-99.99,,2013-04-25 00:00:00,
2013-04-25 00:22:00,54.0,48.0,30.28,North,350,15.0,-999.0,81,-99.99,,,-99.99,,2013-04-25 00:22:00,
2013-04-25 00:31:00,54.0,48.0,30.28,North,350,15.0,-999.0,81,-99.99,,,-99.99,,2013-04-25 00:31:00,
2013-04-25 00:41:00,54.0,48.0,30.28,North,350,15.0,-999.0,81,-99.99,,,-99.99,,2013-04-25 00:41:00,
2013-04-25 00:51:00,54.0,48.0,30.28,North,350,15.0,-999.0,81,-99.99,,,-99.99,,2013-04-25 00:51:00,
2013-04-25 01:00:00,53.0,46.0,30.32,North,350,15.0,-999.0,79,-99.99,,,-99.99,,2013-04-25 01:00:00,
2013-04-25 01:22:00,53.0,46.0,30.32,North,350,15.0,-999.0,79,-99.99,,,-99.99,,2013-04-25 01:22:00,
2013-04-25 01:32:00,53.0,46.0,30.32,North,350,15.0,-999.0,79,-99.99,,,-99.99,,2013-04-25 01:32:00,
2013-04-25 01:41:00,53.0,46.0,30.32,North,350,15.0,-999.0,79,-99.99,,,-99.99,,2013-04-25 01:41:00,
2013-04-25 01:52:00,53.0,46.0,30.32,North,350,15.0,-999.0,79,-99.99,,,-99.99,,2013-04-25 01:52:00,
2013-04-25 02:00:00,53.0,45.0,30.34,North,360,15.0,-999.0,73,-99.99,,,-99.99,,2013-04-25 02:00:00,
2013-04-25 02:21:00,53.0,45.0,30.34,North,360,15.0,-999.0,73,-99.99,,,-99.99,,2013-04-25 02:21:00,
2013-04-25 02:32:00,53.0,45.0,30.34,North,360,15.0,-999.0,73,-99.99,,,-99.99,,2013-04-25 02:32:00,
2013-04-25 02:41:00,53.0,45.0,30.34,North,360,15.0,-999.0,73,-99.99,,,-99.99,,2013-04-25 02:41:00,
2013-04-25 02:51:00,53.0,45.0,30.34,North,360,15.0,-999.0,73,-99.99,,,-99.99,,2013-04-25 02:51:00,
2013-04-25 03:00:00,52.0,39.0,30.36,North,10,15.0,-999.0,61,-99.99,,,-99.99,,2013-04-25 03:00:00,
2013-04-25 03:21:00,52.0,39.0,30.36,North,10,15.0,-999.0,61,-99.99,,,-99.99,,2013-04-25 03:21:00,
2013-04-25 03:32:00,52.0,39.0,30.36,North,10,15.0,-999.0,61,-99.99,,,-99.99,,2013-04-25 03:32:00,
2013-04-25 03:42:00,52.0,39.0,30.36,North,10,15.0,-999.0,61,-99.99,,,-99.99,,2013-04-25 03:42:00,
2013-04-25 03:52:00,52.0,39.0,30.36,North,10,15.0,-999.0,61,-99.99,,,-99.99,,2013-04-25 03:52:00,
2013-04-25 05:00:00,51.0,37.0,30.39,North,360,15.0,-999.0,59,-99.99,,,-99.99,,2013-04-25 05:00:00,
2013-04-25 05:31:00,51.0,37.0,30.39,North,360,15.0,-999.0,59,-99.99,,,-99.99,,2013-04-25 05:31:00,
2013-04-25 05:42:00,51.0,37.0,30.39,North,360,15.0,-999.0,59,-99.99,,,-99.99,,2013-04-25 05:42:00,
2013-04-25 05:51:00,51.0,37.0,30.39,North,360,15.0,-999.0,59,-99.99,,,-99.99,,2013-04-25 05:51:00,
2013-04-25 06:00:00,51.0,37.0,30.40,North,360,10.0,-999.0,59,-99.99,,,-99.99,,2013-04-25 06:00:00,
2013-04-25 06:11:00,51.0,37.0,30.40,North,360,10.0,-999.0,59,-99.99,,,-99.99,,2013-04-25 06:11:00,
2013-04-25 06:21:00,51.0,37.0,30.40,North,360,10.0,-999.0,59,-99.99,,,-99.99,,2013-04-25 06:21:00,
2013-04-25 06:31:00,51.0,37.0,30.40,North,360,10.0,-999.0,59,-99.99,,,-99.99,,2013-04-25 06:31:00,
2013-04-25 06:41:00,51.0,37.0,30.40,North,360,10.0,-999.0,59,-99.99,,,-99.99,,2013-04-25 06:41:00,
2013-04-25 06:52:00,51.0,37.0,30.40,North,360,10.0,-999.0,59,-99.99,,,-99.99,,2013-04-25 06:52:00,
2013-04-25 07:00:00,52.0,41.0,30.44,North,360,15.0,-999.0,66,-99.99,,,-99.99,,2013-04-25 07:00:00,
2013-04-25 07:41:00,52.0,41.0,30.44,North,360,15.0,-999.0,66,-99.99,,,-99.99,,2013-04-25 07:41:00,
2013-04-25 07:52:00,52.0,41.0,30.44,North,360,15.0,-999.0,66,-99.99,,,-99.99,,2013-04-25 07:52:00,
2013-04-25 09:00:00,52.0,41.0,30.46,North,360,13.0,-999.0,66,-99.99,,,-99.99,,2013-04-25 09:00:00,
2013-04-25 09:32:00,52.0,41.0,30.46,North,360,13.0,-999.0,66,-99.99,,,-99.99,,2013-04-25 09:32:00,
2013-04-25 09:41:00,52.0,41.0,30.46,North,360,13.0,-999.0,66,-99.99,,,-99.99,,2013-04-25 09:41:00,
2013-04-25 09:52:00,52.0,41.0,30.46,North,360,13.0,-999.0,66,-99.99,,,-99.99,,2013-04-25 09:52:00,
2013-04-25 10:00:00,54.0,39.0,30.49,North,360,13.0,-999.0,58,-99.99,,,-99.99,,2013-04-25 10:00:00,
2013-04-25 10:22:00,54.0,39.0,30.49,North,360,13.0,-999.0,58,-99.99,,,-99.99,,2013-04-25 10:22:00,
2013-04-25 10:32:00,54.0,39.0,30.49,North,360,13.0,-999.0,58,-99.99,,,-99.99,,2013-04-25 10:32:00,
2013-04-25 10:41:00,54.0,39.0,30.49,North,360,13.0,-999.0,58,-99.99,,,-99.99,,2013-04-25 10:41:00,
2013-04-25 10:52:00,54.0,39.0,30.49,North,360,13.0,-999.0,58,-99.99,,,-99.99,,2013-04-25 10:52:00,
2013-04-25 11:00:00,54.0,39.0,30.55,NE,50,13.0,-999.0,58,-99.99,,,-99.99,,2013-04-25 11:00:00,
2013-04-25 11:21:00,54.0,39.0,30.55,NE,50,13.0,-999.0,58,-99.99,,,-99.99,,2013-04-25 11:21:00,
2013-04-25 11:32:00,54.0,39.0,30.55,NE,50,13.0,-999.0,58,-99.99,,,-99.99,,2013-04-25 11:32:00,
2013-04-25 11:42:00,54.0,39.0,30.55,NE,50,13.0,-999.0,58,-99.99,,,-99.99,,2013-04-25 11:42:00,
2013-04-25 11:51:00,54.0,39.0,30.55,NE,50,13.0,-999.0,58,-99.99,,,-99.99,,2013-04-25 11:51:00,
2013-04-25 12:00:00,52.0,37.0,30.56,NNE,20,14.0,-999.0,57,-99.99,,,-99.99,,2013-04-25 12:00:00,
2013-04-25 12:11:00,52.0,37.0,30.56,NNE,20,14.0,-999.0,57,-99.99,,,-99.99,,2013-04-25 12:11:00,
2013-04-25 12:21:00,52.0,37.0,30.56,NNE,20,14.0,-999.0,57,-99.99,,,-99.99,,2013-04-25 12:21:00,
2013-04-25 12:31:00,52.0,37.0,30.56,NNE,20,14.0,-999.0,57,-99.99,,,-99.99,,2013-04-25 12:31:00,
2013-04-25 12:41:00,52.0,37.0,30.56,NNE,20,14.0,-999.0,57,-99.99,,,-99.99,,2013-04-25 12:41:00,
2013-04-25 12:51:00,52.0,37.0,30.56,NNE,20,14.0,-999.0,57,-99.99,,,-99.99,,2013-04-25 12:51:00,
2013-04-25 13:00:00,54.0,39.0,30.58,NNE,20,22.0,-999.0,58,-99.99,,,-99.99,,2013-04-25 13:00:00,
2013-04-25 13:21:00,54.0,39.0,30.58,NNE,20,22.0,-999.0,58,-99.99,,,-99.99,,2013-04-25 13:21:00,
2013-04-25 13:31:00,54.0,39.0,30.58,NNE,20,22.0,-999.0,58,-99.99,,,-99.99,,2013-04-25 13:31:00,
2013-04-25 13:42:00,54.0,39.0,30.58,NNE,20,22.0,-999.0,58,-99.99,,,-99.99,,2013-04-25 13:42:00,
2013-04-25 13:52:00,54.0,39.0,30.58,NNE,20,22.0,-999.0,58,-99.99,,,-99.99,,2013-04-25 13:52:00,
2013-04-25 14:00:00,54.0,41.0,30.58,NNE,20,15.0,-999.0,62,-99.99,,,-99.99,,2013-04-25 14:00:00,
2013-04-25 14:21:00,54.0,41.0,30.58,NNE,20,15.0,-999.0,62,-99.99,,,-99.99,,2013-04-25 14:21:00,
2013-04-25 14:32:00,54.0,41.0,30.58,NNE,20,15.0,-999.0,62,-99.99,,,-99.99,,2013-04-25 14:32:00,
2013-04-25 14:41:00,54.0,41.0,30.58,NNE,20,15.0,-999.0,62,-99.99,,,-99.99,,2013-04-25 14:41:00,
2013-04-25 14:51:00,54.0,41.0,30.58,NNE,20,15.0,-999.0,62,-99.99,,,-99.99,,2013-04-25 14:51:00,
2013-04-25 15:00:00,53.0,39.0,30.58,NNE,30,15.0,-999.0,59,-99.99,,,-99.99,,2013-04-25 15:00:00,
2013-04-25 15:21:00,53.0,39.0,30.58,NNE,30,15.0,-999.0,59,-99.99,,,-99.99,,2013-04-25 15:21:00,
2013-04-25 15:32:00,53.0,39.0,30.58,NNE,30,15.0,-999.0,59,-99.99,,,-99.99,,2013-04-25 15:32:00,
2013-04-25 15:42:00,53.0,39.0,30.58,NNE,30,15.0,-999.0,59,-99.99,,,-99.99,,2013-04-25 15:42:00,
2013-04-25 15:52:00,53.0,39.0,30.58,NNE,30,15.0,-999.0,59,-99.99,,,-99.99,,2013-04-25 15:52:00,
2013-04-25 16:00:00,52.0,39.0,30.58,NNE,30,15.0,-999.0,61,-99.99,,,-99.99,,2013-04-25 16:00:00,
2013-04-25 16:13:00,52.0,39.0,30.58,NNE,30,15.0,-999.0,61,-99.99,,,-99.99,,2013-04-25 16:13:00,
2013-04-25 16:24:00,52.0,39.0,30.58,NNE,30,15.0,-999.0,61,-99.99,,,-99.99,,2013-04-25 16:24:00,
2013-04-25 16:32:00,52.0,39.0,30.58,NNE,30,15.0,-999.0,61,-99.99,,,-99.99,,2013-04-25 16:32:00,
2013-04-25 16:42:00,52.0,39.0,30.58,NNE,30,15.0,-999.0,61,-99.99,,,-99.99,,2013-04-25 16:42:00,
2013-04-25 16:52:00,52.0,39.0,30.58,NNE,30,15.0,-999.0,61,-99.99,,,-99.99,,2013-04-25 16:52:00,
2013-04-25 18:00:00,53.0,45.0,30.59,NE,50,28.0,-999.0,73,-99.99,,,-99.99,,2013-04-25 18:00:00,
2013-04-25 18:52:00,53.0,45.0,30.59,NE,50,28.0,-999.0,73,-99.99,,,-99.99,,2013-04-25 18:52:00,
2013-04-25 20:00:00,52.0,45.0,30.59,NE,50,22.0,-999.0,76,-99.99,,,-99.99,,2013-04-25 20:00:00,
2013-04-25 20:11:00,52.0,45.0,30.59,NE,50,22.0,-999.0,76,-99.99,,,-99.99,,2013-04-25 20:11:00,
2013-04-25 20:21:00,52.0,45.0,30.59,NE,50,22.0,-999.0,76,-99.99,,,-99.99,,2013-04-25 20:21:00,
2013-04-25 20:31:00,52.0,45.0,30.59,NE,50,22.0,-999.0,76,-99.99,,,-99.99,,2013-04-25 20:31:00,
2013-04-25 20:42:00,52.0,45.0,30.59,NE,50,22.0,-999.0,76,-99.99,,,-99.99,,2013-04-25 20:42:00,
2013-04-25 20:51:00,52.0,45.0,30.59,NE,50,22.0,-999.0,76,-99.99,,,-99.99,,2013-04-25 20:51:00,
2013-04-25 22:00:00,57.0,52.0,30.65,NE,50,28.0,-999.0,82,-99.99,,,-99.99,,2013-04-25 22:00:00,
2013-04-25 22:22:00,57.0,52.0,30.65,NE,50,28.0,-999.0,82,-99.99,,,-99.99,,2013-04-25 22:22:00,
2013-04-25 22:32:00,57.0,52.0,30.65,NE,50,28.0,-999.0,82,-99.99,,,-99.99,,2013-04-25 22:32:00,
2013-04-25 22:42:00,57.0,52.0,30.65,NE,50,28.0,-999.0,82,-99.99,,,-99.99,,2013-04-25 22:42:00,
2013-04-25 22:52:00,57.0,52.0,30.65,NE,50,28.0,-999.0,82,-99.99,,,-99.99,,2013-04-25 22:52:00,
2013-04-25 23:00:00,55.0,48.0,30.68,NNE,20,23.0,-999.0,76,-99.99,,,-99.99,,2013-04-25 23:00:00,
2013-04-25 23:32:00,55.0,48.0,30.68,NNE,20,23.0,-999.0,76,-99.99,,,-99.99,,2013-04-25 23:32:00,
2013-04-25 23:41:00,55.0,48.0,30.68,NNE,20,23.0,-999.0,76,-99.99,,,-99.99,,2013-04-25 23:41:00,
2013-04-25 23:52:00,55.0,48.0,30.68,NNE,20,23.0,-999.0,76,-99.99,,,-99.99,,2013-04-25 23:52:00,